< < Back
Terminal Aerodrome Forecast


Current Version              Previous Versions:   1  2  3  4  5  6  7  8  9  

Terminal Aerodrome Forecast

532
FTUS44 KMRX 281720
TAFTYS
TAF
KTYS 281720Z 2818/2918 33007KT P6SM FEW045 SCT250
     FM290000 03003KT P6SM SKC
     FM291400 VRB02KT P6SM SCT250=



Latest METAR

090
SAUS80 KWBC 281800 RRA
MTRTYS
METAR KTYS 281753Z VRB04KT 10SM FEW030 05/M09 A3019 RMK AO2 SLP227
T00501094 10050 21006 52002


USA.gov is the U.S. government's official web portal to all federal, state and local government web resources and services.